createdAt,value
2023-01-08T00:00:09.680Z,0.60
2023-01-08T00:02:39.393Z,0.90
2023-01-08T00:05:06.787Z,0.47
2023-01-08T00:07:33.342Z,0.70
2023-01-08T00:09:59.886Z,0.80
2023-01-08T00:12:26.429Z,0.63
2023-01-08T00:14:53.192Z,0.45
2023-01-08T00:17:19.792Z,0.50
2023-01-08T00:19:46.335Z,0.60
2023-01-08T00:22:12.873Z,0.40
2023-01-08T00:24:39.426Z,0.55
2023-01-08T00:27:06.005Z,0.57
2023-01-08T00:29:32.606Z,0.50
2023-01-08T00:31:59.229Z,0.30
2023-01-08T00:34:25.860Z,0.50
2023-01-08T00:36:52.397Z,0.43
2023-01-08T00:39:18.912Z,0.57
2023-01-08T00:41:45.827Z,0.40
2023-01-08T00:44:12.400Z,0.40
2023-01-08T00:46:38.908Z,0.60
2023-01-08T00:49:05.471Z,0.32
2023-01-08T00:51:32.087Z,0.40
2023-01-08T00:53:59.211Z,0.40
2023-01-08T00:56:25.737Z,0.43
2023-01-08T00:58:52.282Z,0.40
2023-01-08T01:01:18.967Z,0.70
2023-01-08T01:03:45.679Z,0.45
2023-01-08T01:06:14.075Z,0.57
2023-01-08T01:08:41.530Z,0.57
2023-01-08T01:11:22.764Z,0.43
2023-01-08T01:13:49.782Z,0.30
2023-01-08T01:16:16.998Z,0.43
2023-01-08T01:18:43.825Z,0.30
2023-01-08T01:21:24.776Z,0.28
2023-01-08T01:23:55.135Z,0.45
2023-01-08T01:26:22.544Z,0.30
2023-01-08T01:28:51.542Z,0.50
2023-01-08T01:31:18.863Z,0.30
2023-01-08T01:33:46.647Z,0.40
2023-01-08T01:36:15.015Z,0.35
2023-01-08T01:38:49.359Z,0.70
2023-01-08T01:41:27.178Z,0.40
2023-01-08T01:43:55.607Z,0.50
2023-01-08T01:46:38.739Z,0.47
2023-01-08T01:49:15.480Z,0.20
2023-01-08T01:51:49.087Z,0.30
2023-01-08T01:54:17.769Z,0.40
2023-01-08T01:56:45.510Z,0.40
2023-01-08T01:59:12.436Z,0.30
2023-01-08T02:01:41.557Z,0.30
2023-01-08T02:04:11.567Z,0.65
2023-01-08T02:06:48.156Z,0.65
2023-01-08T02:09:23.719Z,0.50
2023-01-08T02:12:16.472Z,0.38
2023-01-08T02:15:00.790Z,0.43
2023-01-08T02:17:37.367Z,0.45
2023-01-08T02:20:18.646Z,0.40
2023-01-08T02:22:54.685Z,0.50
2023-01-08T02:25:30.137Z,0.45
2023-01-08T02:27:58.824Z,0.35
2023-01-08T02:30:25.688Z,0.50
2023-01-08T02:32:52.279Z,0.88
2023-01-08T02:35:18.878Z,0.60
2023-01-08T02:37:45.552Z,0.30
2023-01-08T02:40:33.865Z,0.40
2023-01-08T02:43:12.308Z,0.50
2023-01-08T02:45:48.691Z,0.50
2023-01-08T02:48:30.947Z,0.30
2023-01-08T02:51:11.074Z,0.43
2023-01-08T02:53:47.245Z,0.43
2023-01-08T02:56:18.114Z,0.47
2023-01-08T02:58:47.865Z,0.40
2023-01-08T03:01:17.202Z,0.28
2023-01-08T03:03:49.092Z,0.45
2023-01-08T03:06:18.842Z,0.47
2023-01-08T03:08:48.820Z,0.50
2023-01-08T03:11:18.723Z,0.40
2023-01-08T03:14:00.444Z,0.32
2023-01-08T03:16:33.905Z,0.40
2023-01-08T03:19:15.526Z,0.63
2023-01-08T03:21:44.892Z,0.38
2023-01-08T03:24:15.619Z,0.40
2023-01-08T03:26:45.391Z,0.30
2023-01-08T03:29:15.768Z,0.40
2023-01-08T03:31:44.452Z,0.35
2023-01-08T03:34:13.662Z,0.60
2023-01-08T03:36:45.047Z,0.52
2023-01-08T03:39:33.088Z,0.30
2023-01-08T03:42:07.440Z,0.40
2023-01-08T03:44:33.959Z,0.40
2023-01-08T03:47:01.480Z,0.68
2023-01-08T03:49:29.662Z,0.75
2023-01-08T03:51:56.772Z,0.30
2023-01-08T03:54:29.249Z,0.38
2023-01-08T03:56:55.805Z,0.30
2023-01-08T03:59:22.455Z,0.40
2023-01-08T04:01:50.236Z,0.52
2023-01-08T04:04:17.642Z,0.30
2023-01-08T04:06:44.206Z,0.73
2023-01-08T04:09:10.823Z,0.93
2023-01-08T04:11:37.540Z,0.40
2023-01-08T04:14:04.148Z,0.47
2023-01-08T04:16:31.607Z,0.70
2023-01-08T04:18:58.172Z,0.43
2023-01-08T04:21:24.767Z,0.50
2023-01-08T04:23:51.307Z,0.30
2023-01-08T04:26:17.821Z,0.50
2023-01-08T04:28:44.414Z,0.30
2023-01-08T04:31:11.012Z,0.35
2023-01-08T04:33:37.991Z,0.47
2023-01-08T04:36:05.363Z,0.30
2023-01-08T04:38:31.956Z,0.30
2023-01-08T04:41:00.519Z,0.43
2023-01-08T04:43:27.637Z,0.30
2023-01-08T04:45:58.753Z,0.40
2023-01-08T04:48:25.541Z,0.40
2023-01-08T04:50:52.104Z,0.73
2023-01-08T04:53:18.677Z,0.63
2023-01-08T04:55:45.269Z,0.73
2023-01-08T04:58:12.245Z,0.57
2023-01-08T05:00:40.057Z,0.38
2023-01-08T05:03:06.873Z,0.55
2023-01-08T05:05:34.720Z,0.55
2023-01-08T05:08:01.300Z,0.40
2023-01-08T05:10:27.842Z,0.55
2023-01-08T05:12:59.240Z,0.55
2023-01-08T05:15:26.080Z,0.30
2023-01-08T05:18:04.808Z,0.30
2023-01-08T05:20:34.465Z,0.28
2023-01-08T05:23:02.005Z,0.35
2023-01-08T05:25:28.538Z,0.40
2023-01-08T05:27:55.099Z,0.30
2023-01-08T05:30:21.644Z,0.65
2023-01-08T05:32:48.206Z,0.20
2023-01-08T05:35:14.772Z,0.30
2023-01-08T05:37:41.370Z,0.40
2023-01-08T05:40:08.451Z,0.77
2023-01-08T05:42:35.405Z,0.57
2023-01-08T05:45:06.354Z,0.40
2023-01-08T05:47:34.790Z,0.38
2023-01-08T05:50:01.411Z,0.30
2023-01-08T05:52:28.258Z,0.68
2023-01-08T05:54:54.807Z,0.40
2023-01-08T05:57:21.398Z,0.40
2023-01-08T05:59:48.025Z,0.40
2023-01-08T06:02:14.585Z,0.32
2023-01-08T06:04:41.227Z,0.60
2023-01-08T06:07:07.851Z,0.40
2023-01-08T06:09:34.379Z,0.35
2023-01-08T06:12:00.947Z,0.30
2023-01-08T06:14:27.555Z,0.52
2023-01-08T06:16:54.172Z,0.28
2023-01-08T06:19:20.807Z,0.30
2023-01-08T06:21:47.385Z,0.40
2023-01-08T06:24:13.979Z,0.55
2023-01-08T06:26:40.521Z,0.43
2023-01-08T06:29:07.124Z,0.40
2023-01-08T06:31:33.746Z,0.40
2023-01-08T06:34:00.276Z,0.50
2023-01-08T06:36:26.814Z,0.30
2023-01-08T06:38:53.488Z,0.20
2023-01-08T06:41:20.025Z,0.28
2023-01-08T06:43:46.541Z,0.50
2023-01-08T06:46:13.202Z,0.40
2023-01-08T06:48:39.770Z,0.40
2023-01-08T06:51:06.720Z,0.73
2023-01-08T06:53:33.399Z,0.65
2023-01-08T06:56:00.109Z,0.60
2023-01-08T06:58:27.775Z,0.40
2023-01-08T07:00:54.680Z,0.47
2023-01-08T07:03:21.294Z,0.40
2023-01-08T07:05:50.616Z,0.50
2023-01-08T07:08:18.105Z,0.73
2023-01-08T07:10:45.166Z,0.40
2023-01-08T07:13:12.730Z,0.40
2023-01-08T07:15:42.971Z,0.30
2023-01-08T07:18:11.736Z,0.50
2023-01-08T07:20:38.651Z,0.35
2023-01-08T07:23:08.050Z,0.40
2023-01-08T07:25:34.651Z,0.60
2023-01-08T07:28:01.974Z,0.40
2023-01-08T07:30:30.515Z,0.40
2023-01-08T07:33:01.665Z,0.30
2023-01-08T07:35:28.968Z,0.30
2023-01-08T07:37:55.792Z,0.30
2023-01-08T07:40:23.005Z,0.40
2023-01-08T07:42:58.000Z,0.32
2023-01-08T07:45:24.767Z,0.40
2023-01-08T07:47:51.309Z,0.75
2023-01-08T07:50:17.962Z,0.52
2023-01-08T07:52:44.518Z,0.52
2023-01-08T07:55:11.106Z,0.50
2023-01-08T07:57:37.664Z,0.40
2023-01-08T08:00:04.700Z,0.50
2023-01-08T08:02:33.720Z,0.30
2023-01-08T08:05:00.393Z,0.50
2023-01-08T08:07:27.220Z,0.40
2023-01-08T08:09:53.817Z,0.93
2023-01-08T08:12:20.402Z,0.43
2023-01-08T08:14:46.976Z,1.27
2023-01-08T08:17:13.493Z,0.68
2023-01-08T08:19:43.670Z,0.70
2023-01-08T08:22:10.268Z,0.50
2023-01-08T08:24:36.808Z,0.60
2023-01-08T08:27:03.498Z,0.70
2023-01-08T08:29:30.064Z,0.50
2023-01-08T08:31:56.648Z,0.60
2023-01-08T08:34:23.553Z,0.55
2023-01-08T08:36:50.106Z,0.98
2023-01-08T08:39:16.874Z,0.50
2023-01-08T08:41:43.415Z,1.00
2023-01-08T08:44:10.003Z,1.00
2023-01-08T08:46:36.712Z,0.40
2023-01-08T08:49:03.381Z,0.50
2023-01-08T08:51:29.934Z,0.85
2023-01-08T08:53:56.507Z,0.40
2023-01-08T08:56:23.110Z,0.40
2023-01-08T08:58:50.690Z,0.68
2023-01-08T09:01:17.398Z,0.60
2023-01-08T09:03:44.043Z,1.20
2023-01-08T09:06:14.502Z,0.60
2023-01-08T09:08:41.334Z,0.50
2023-01-08T09:11:07.886Z,0.60
2023-01-08T09:13:36.108Z,0.30
2023-01-08T09:16:03.128Z,0.40
2023-01-08T09:18:29.775Z,0.60
2023-01-08T09:20:56.287Z,0.50
2023-01-08T09:23:22.824Z,0.47
2023-01-08T09:25:49.346Z,0.50
2023-01-08T09:28:17.244Z,0.60
2023-01-08T09:30:43.779Z,0.38
2023-01-08T09:33:11.245Z,0.30
2023-01-08T09:35:37.771Z,0.50
2023-01-08T09:38:04.331Z,0.50
2023-01-08T09:40:43.217Z,0.30
2023-01-08T09:43:17.399Z,0.30
2023-01-08T09:45:49.016Z,0.60
2023-01-08T09:48:18.092Z,0.70
2023-01-08T09:50:45.000Z,0.45
2023-01-08T09:53:17.448Z,0.63
2023-01-08T09:55:46.372Z,0.35
2023-01-08T09:58:33.113Z,0.47
2023-01-08T10:01:02.895Z,0.60
2023-01-08T10:03:37.969Z,0.40
2023-01-08T10:06:12.887Z,0.40
2023-01-08T10:08:40.310Z,0.55
2023-01-08T10:11:07.932Z,0.63
2023-01-08T10:13:37.934Z,0.40
2023-01-08T10:16:10.951Z,0.82
2023-01-08T10:18:38.382Z,0.53
2023-01-08T10:21:05.490Z,0.35
2023-01-08T10:23:32.080Z,0.52
2023-01-08T10:26:01.072Z,0.40
2023-01-08T10:28:30.182Z,0.50
2023-01-08T10:31:09.166Z,0.60
2023-01-08T10:33:42.479Z,0.70
2023-01-08T10:36:13.720Z,0.43
2023-01-08T10:38:43.047Z,0.55
2023-01-08T10:41:12.437Z,0.32
2023-01-08T10:43:55.085Z,0.30
2023-01-08T10:46:24.576Z,0.50
2023-01-08T10:48:57.502Z,0.40
2023-01-08T10:51:26.089Z,0.57
2023-01-08T10:53:54.455Z,0.47
2023-01-08T10:56:22.883Z,0.43
2023-01-08T10:58:50.548Z,0.50
2023-01-08T11:01:23.518Z,0.73
2023-01-08T11:03:52.899Z,0.43
2023-01-08T11:06:23.058Z,0.55
2023-01-08T11:08:55.584Z,0.80
2023-01-08T11:11:23.626Z,0.40
2023-01-08T11:14:03.661Z,0.88
2023-01-08T11:16:33.411Z,0.60
2023-01-08T11:19:00.127Z,0.50
2023-01-08T11:21:31.599Z,0.43
2023-01-08T11:24:26.991Z,0.30
2023-01-08T11:26:57.956Z,0.57
2023-01-08T11:29:34.871Z,0.40
2023-01-08T11:32:13.598Z,0.45
2023-01-08T11:34:56.203Z,0.43
2023-01-08T11:37:25.660Z,0.60
2023-01-08T11:39:53.298Z,0.65
2023-01-08T11:42:35.759Z,0.55
2023-01-08T11:45:30.265Z,0.40
2023-01-08T11:50:46.145Z,0.60
2023-01-08T11:53:18.749Z,0.50
2023-01-08T11:56:09.278Z,0.60
2023-01-08T11:59:05.501Z,0.47
2023-01-08T12:01:45.003Z,0.57
2023-01-08T12:04:30.005Z,0.60
2023-01-08T12:07:24.798Z,0.40
2023-01-08T12:10:09.695Z,0.55
2023-01-08T12:12:54.974Z,0.52
2023-01-08T12:16:06.693Z,0.45
2023-01-08T12:19:14.889Z,0.50
2023-01-08T12:21:47.303Z,0.40
2023-01-08T12:24:38.636Z,0.40
2023-01-08T12:27:56.384Z,0.70
2023-01-08T12:30:36.501Z,0.50
2023-01-08T12:33:10.812Z,0.40
2023-01-08T12:35:47.609Z,0.47
2023-01-08T12:38:25.148Z,0.80
2023-01-08T12:41:06.919Z,0.77
2023-01-08T12:43:58.832Z,0.50
2023-01-08T12:46:29.473Z,0.68
2023-01-08T12:48:57.695Z,0.80
2023-01-08T12:52:00.619Z,0.32
2023-01-08T12:54:33.641Z,0.70
2023-01-08T12:57:16.498Z,0.40
2023-01-08T13:00:08.758Z,0.63
2023-01-08T13:02:38.234Z,0.57
2023-01-08T13:05:35.406Z,0.60
2023-01-08T13:08:08.176Z,0.40
2023-01-08T13:10:36.974Z,0.50
2023-01-08T13:13:05.761Z,0.60
2023-01-08T13:15:33.382Z,1.17
2023-01-08T13:18:15.326Z,0.50
2023-01-08T13:20:42.427Z,0.30
2023-01-08T13:23:24.803Z,0.40
2023-01-08T13:25:53.621Z,0.40
2023-01-08T13:28:39.024Z,0.75
2023-01-08T13:31:30.303Z,0.68
2023-01-08T13:33:56.966Z,0.50
2023-01-08T13:36:28.587Z,0.50
2023-01-08T13:39:10.140Z,0.52
2023-01-08T13:41:41.272Z,0.45
2023-01-08T13:44:30.969Z,0.60
2023-01-08T13:47:04.389Z,0.95
2023-01-08T13:49:41.813Z,0.47
2023-01-08T13:52:30.135Z,0.60
2023-01-08T13:54:57.211Z,0.50
2023-01-08T13:57:24.383Z,0.65
2023-01-08T13:59:58.958Z,0.32
2023-01-08T14:02:27.557Z,0.60
2023-01-08T14:04:54.589Z,0.50
2023-01-08T14:07:23.616Z,0.35
2023-01-08T14:09:50.679Z,0.30
2023-01-08T14:12:20.403Z,0.50
2023-01-08T14:14:58.857Z,0.40
2023-01-08T14:17:32.186Z,0.60
2023-01-08T14:19:59.585Z,0.50
2023-01-08T14:22:33.884Z,0.65
2023-01-08T14:25:03.589Z,1.00
2023-01-08T14:27:31.718Z,0.50
2023-01-08T14:29:59.046Z,0.40
2023-01-08T14:32:29.321Z,0.50
2023-01-08T14:34:58.554Z,0.63
2023-01-08T14:37:25.419Z,0.60
2023-01-08T14:39:54.668Z,0.70
2023-01-08T14:42:47.160Z,0.40
2023-01-08T14:45:21.272Z,0.50
2023-01-08T14:50:24.958Z,0.82
2023-01-08T14:52:58.043Z,1.17
2023-01-08T14:55:26.867Z,1.17
2023-01-08T14:57:56.038Z,1.00
2023-01-08T15:00:26.614Z,1.13
2023-01-08T15:02:53.566Z,1.10
2023-01-08T15:05:28.287Z,0.70
2023-01-08T15:08:21.073Z,0.85
2023-01-08T15:10:58.143Z,0.77
2023-01-08T15:13:29.989Z,0.55
2023-01-08T15:16:01.008Z,1.00
2023-01-08T15:18:27.598Z,1.15
2023-01-08T15:20:55.251Z,0.65
2023-01-08T15:23:37.678Z,0.70
2023-01-08T15:26:04.525Z,1.17
2023-01-08T15:28:31.148Z,1.25
2023-01-08T15:30:57.973Z,0.82
2023-01-08T15:33:26.237Z,0.80
2023-01-08T15:35:53.144Z,0.70
2023-01-08T15:38:24.034Z,1.00
2023-01-08T15:40:53.128Z,1.02
2023-01-08T15:43:20.088Z,1.30
2023-01-08T15:45:49.505Z,1.00
2023-01-08T15:48:16.094Z,1.40
2023-01-08T15:50:44.492Z,1.33
2023-01-08T15:53:24.708Z,1.50
2023-01-08T15:55:51.676Z,1.20
2023-01-08T15:58:18.619Z,1.00
2023-01-08T16:00:46.442Z,0.80
2023-01-08T16:03:14.549Z,1.08
2023-01-08T16:05:41.430Z,1.38
2023-01-08T16:08:08.055Z,1.13
2023-01-08T16:10:34.824Z,0.90
2023-01-08T16:13:01.920Z,0.98
2023-01-08T16:15:30.724Z,1.40
2023-01-08T16:17:58.097Z,2.17
2023-01-08T16:20:24.888Z,2.58
2023-01-08T16:22:51.489Z,3.03
2023-01-08T16:25:18.118Z,4.00
2023-01-08T16:27:44.677Z,3.47
2023-01-08T16:30:14.690Z,2.55
2023-01-08T16:32:41.925Z,3.03
2023-01-08T16:35:09.341Z,2.95
2023-01-08T16:37:35.921Z,2.15
2023-01-08T16:40:02.579Z,1.93
2023-01-08T16:42:29.395Z,1.95
2023-01-08T16:44:55.953Z,2.22
2023-01-08T16:47:22.562Z,2.08
2023-01-08T16:49:50.371Z,1.83
2023-01-08T16:52:17.520Z,1.75
2023-01-08T16:54:44.945Z,1.70
2023-01-08T16:57:11.550Z,1.50
2023-01-08T16:59:38.111Z,1.48
2023-01-08T17:02:04.704Z,1.58
2023-01-08T17:04:31.579Z,1.75
2023-01-08T17:06:58.182Z,2.33
2023-01-08T17:09:25.535Z,1.90
2023-01-08T17:11:52.128Z,2.25
2023-01-08T17:14:18.727Z,1.70
2023-01-08T17:16:45.523Z,1.48
2023-01-08T17:19:13.326Z,1.10
2023-01-08T17:21:40.257Z,1.05
2023-01-08T17:24:07.550Z,1.92
2023-01-08T17:26:34.182Z,1.65
2023-01-08T17:29:00.708Z,2.20
2023-01-08T17:31:27.457Z,2.13
2023-01-08T17:33:54.555Z,1.60
2023-01-08T17:36:23.792Z,1.25
2023-01-08T17:38:53.326Z,1.25
2023-01-08T17:41:53.660Z,1.38
2023-01-08T17:44:20.259Z,1.85
2023-01-08T17:46:46.848Z,1.70
2023-01-08T17:49:14.980Z,1.45
2023-01-08T17:51:43.158Z,2.10
2023-01-08T17:54:11.943Z,2.38
2023-01-08T17:56:38.844Z,2.45
2023-01-08T17:59:05.441Z,1.67
2023-01-08T18:01:34.756Z,2.00
2023-01-08T18:04:01.484Z,1.45
2023-01-08T18:06:28.060Z,1.90
2023-01-08T18:08:54.622Z,1.80
2023-01-08T18:11:21.306Z,1.50
2023-01-08T18:13:48.081Z,1.13
2023-01-08T18:16:15.061Z,1.73
2023-01-08T18:18:41.673Z,1.50
2023-01-08T18:21:08.846Z,1.42
2023-01-08T18:23:35.425Z,1.60
2023-01-08T18:26:12.353Z,1.83
2023-01-08T18:28:39.216Z,1.45
2023-01-08T18:31:07.640Z,1.70
2023-01-08T18:33:34.801Z,1.80
2023-01-08T18:36:06.054Z,1.73
2023-01-08T18:38:33.433Z,1.67
2023-01-08T18:40:59.990Z,1.85
2023-01-08T18:43:26.887Z,1.42
2023-01-08T18:45:59.047Z,1.83
2023-01-08T18:48:25.855Z,2.13
2023-01-08T18:50:52.454Z,1.88
2023-01-08T18:53:19.039Z,1.77
2023-01-08T18:55:45.603Z,2.05
2023-01-08T18:58:12.153Z,1.67
2023-01-08T19:00:38.756Z,1.98
2023-01-08T19:03:08.804Z,1.80
2023-01-08T19:05:40.923Z,1.95
2023-01-08T19:08:07.497Z,1.60
2023-01-08T19:10:38.571Z,2.60
2023-01-08T19:13:05.968Z,1.98
2023-01-08T19:15:33.234Z,1.50
2023-01-08T19:18:00.134Z,2.30
2023-01-08T19:20:27.428Z,1.50
2023-01-08T19:22:54.405Z,2.13
2023-01-08T19:25:21.473Z,2.00
2023-01-08T19:27:48.093Z,2.00
2023-01-08T19:30:15.390Z,2.30
2023-01-08T19:32:41.941Z,1.52
2023-01-08T19:35:08.906Z,1.92
2023-01-08T19:37:35.499Z,1.65
2023-01-08T19:40:02.090Z,3.15
2023-01-08T19:42:47.753Z,1.77
2023-01-08T19:45:14.465Z,2.22
2023-01-08T19:47:41.884Z,2.50
2023-01-08T19:50:09.295Z,2.05
2023-01-08T19:52:36.272Z,1.45
2023-01-08T19:55:02.982Z,2.38
2023-01-08T19:57:29.656Z,1.88
2023-01-08T19:59:56.210Z,1.88
2023-01-08T20:02:22.894Z,1.52
2023-01-08T20:04:50.588Z,1.55
2023-01-08T20:07:17.363Z,2.08
2023-01-08T20:09:43.999Z,2.03
2023-01-08T20:12:11.093Z,1.58
2023-01-08T20:14:37.637Z,2.10
2023-01-08T20:17:04.250Z,1.50
2023-01-08T20:19:30.791Z,2.20
2023-01-08T20:21:58.932Z,2.00
2023-01-08T20:24:25.503Z,1.85
2023-01-08T20:26:52.032Z,1.80
2023-01-08T20:29:18.664Z,1.65
2023-01-08T20:31:45.404Z,1.65
2023-01-08T20:34:15.506Z,1.60
2023-01-08T20:36:43.718Z,1.63
2023-01-08T20:39:14.560Z,1.83
2023-01-08T20:41:46.603Z,1.25
2023-01-08T20:44:22.426Z,1.27
2023-01-08T20:46:49.203Z,2.42
2023-01-08T20:49:18.353Z,1.60
2023-01-08T20:51:54.379Z,1.45
2023-01-08T20:54:25.212Z,1.42
2023-01-08T20:56:51.761Z,1.60
2023-01-08T20:59:18.377Z,1.65
2023-01-08T21:01:44.956Z,1.48
2023-01-08T21:04:11.893Z,1.83
2023-01-08T21:06:38.767Z,1.30
2023-01-08T21:09:08.092Z,1.60
2023-01-08T21:11:37.183Z,1.30
2023-01-08T21:14:04.045Z,1.08
2023-01-08T21:16:32.117Z,1.33
2023-01-08T21:18:59.143Z,1.60
2023-01-08T21:21:29.629Z,1.20
2023-01-08T21:23:57.369Z,1.67
2023-01-08T21:26:24.263Z,1.13
2023-01-08T21:28:50.867Z,1.98
2023-01-08T21:31:20.600Z,1.80
2023-01-08T21:33:48.842Z,1.20
2023-01-08T21:36:23.618Z,1.48
2023-01-08T21:38:50.685Z,1.73
2023-01-08T21:41:38.781Z,1.58
2023-01-08T21:44:48.605Z,1.00
2023-01-08T21:47:17.227Z,1.80
2023-01-08T21:49:44.676Z,1.02
2023-01-08T21:52:30.224Z,1.40
2023-01-08T21:54:58.182Z,2.10
2023-01-08T21:57:27.565Z,1.10
2023-01-08T21:59:54.698Z,1.33
2023-01-08T22:02:23.290Z,1.85
2023-01-08T22:04:50.548Z,1.40
2023-01-08T22:07:17.144Z,1.65
2023-01-08T22:09:43.836Z,1.58
2023-01-08T22:12:10.472Z,1.17
2023-01-08T22:14:37.222Z,0.85
2023-01-08T22:17:05.081Z,1.13
2023-01-08T22:19:31.617Z,0.95
2023-01-08T22:21:58.219Z,1.42
2023-01-08T22:24:24.927Z,0.88
2023-01-08T22:26:51.542Z,1.00
2023-01-08T22:29:18.150Z,1.23
2023-01-08T22:31:44.805Z,0.93
2023-01-08T22:34:16.841Z,1.08
2023-01-08T22:36:44.653Z,1.02
2023-01-08T22:39:11.639Z,1.38
2023-01-08T22:41:38.270Z,0.77
2023-01-08T22:44:04.902Z,0.57
2023-01-08T22:46:31.715Z,0.88
2023-01-08T22:48:58.385Z,1.42
2023-01-08T22:51:27.799Z,0.80
2023-01-08T22:53:55.984Z,0.70
2023-01-08T22:56:22.561Z,1.10
2023-01-08T22:58:49.177Z,1.00
2023-01-08T23:01:18.899Z,0.90
2023-01-08T23:03:49.209Z,1.00
2023-01-08T23:06:17.407Z,1.02
2023-01-08T23:08:44.955Z,1.10
2023-01-08T23:11:14.654Z,1.10
2023-01-08T23:13:42.201Z,1.30
2023-01-08T23:16:11.635Z,0.43
2023-01-08T23:18:38.545Z,1.08
2023-01-08T23:21:08.541Z,0.90
2023-01-08T23:23:35.110Z,0.70
2023-01-08T23:26:06.108Z,0.93
2023-01-08T23:28:32.798Z,1.50
2023-01-08T23:30:59.374Z,0.70
2023-01-08T23:33:26.191Z,0.80
2023-01-08T23:35:52.814Z,0.95
2023-01-08T23:38:19.431Z,1.13
2023-01-08T23:40:46.432Z,1.30
2023-01-08T23:43:13.358Z,1.30
2023-01-08T23:45:39.999Z,1.13
2023-01-08T23:48:07.582Z,0.98
2023-01-08T23:50:34.558Z,1.35
2023-01-08T23:53:01.183Z,1.20
2023-01-08T23:55:27.738Z,0.80
2023-01-08T23:57:54.291Z,1.30
